createdAt,value
2022-08-19T00:01:53.207Z,8.45
2022-08-19T00:04:24.385Z,8.90
2022-08-19T00:06:54.416Z,8.70
2022-08-19T00:09:24.505Z,8.73
2022-08-19T00:11:53.870Z,9.25
2022-08-19T00:14:22.872Z,9.27
2022-08-19T00:16:52.502Z,10.52
2022-08-19T00:19:20.676Z,10.27
2022-08-19T00:21:48.744Z,9.30
2022-08-19T00:24:18.305Z,8.63
2022-08-19T00:26:47.570Z,9.30
2022-08-19T00:29:18.132Z,8.55
2022-08-19T00:31:46.606Z,9.18
2022-08-19T00:34:16.403Z,9.07
2022-08-19T00:36:44.987Z,9.45
2022-08-19T00:39:14.085Z,9.93
2022-08-19T00:41:44.123Z,8.63
2022-08-19T00:44:15.691Z,9.38
2022-08-19T00:46:55.289Z,10.13
2022-08-19T00:49:30.070Z,8.80
2022-08-19T00:52:02.741Z,9.35
2022-08-19T00:54:32.474Z,7.97
2022-08-19T00:57:03.916Z,9.00
2022-08-19T00:59:56.225Z,9.35
2022-08-19T01:02:20.199Z,8.15
2022-08-19T01:04:49.036Z,8.50
2022-08-19T01:07:19.676Z,9.10
2022-08-19T01:09:48.775Z,10.38
2022-08-19T01:12:19.640Z,10.63
2022-08-19T01:14:49.781Z,11.88
2022-08-19T01:17:18.684Z,12.43
2022-08-19T01:19:48.731Z,11.85
2022-08-19T01:22:28.662Z,10.23
2022-08-19T01:25:02.542Z,10.25
2022-08-19T01:27:43.849Z,9.40
2022-08-19T01:30:15.206Z,9.15
2022-08-19T01:32:44.197Z,9.15
2022-08-19T01:35:14.198Z,8.80
2022-08-19T01:37:50.683Z,8.52
2022-08-19T01:40:22.245Z,8.82
2022-08-19T01:42:50.635Z,8.57
2022-08-19T01:45:18.984Z,9.80
2022-08-19T01:48:01.296Z,9.18
2022-08-19T01:50:30.875Z,9.60
2022-08-19T01:53:02.279Z,9.60
2022-08-19T01:55:41.052Z,9.35
2022-08-19T01:58:13.429Z,10.15
2022-08-19T02:00:42.121Z,10.43
2022-08-19T02:03:12.157Z,10.82
2022-08-19T02:05:40.678Z,10.85
2022-08-19T02:08:09.365Z,11.15
2022-08-19T02:10:41.498Z,10.75
2022-08-19T02:13:09.447Z,11.57
2022-08-19T02:15:37.398Z,10.77
2022-08-19T02:18:06.262Z,12.20
2022-08-19T02:20:34.864Z,12.20
2022-08-19T02:23:02.789Z,11.68
2022-08-19T02:25:30.709Z,11.85
2022-08-19T02:28:00.035Z,11.13
2022-08-19T02:30:28.864Z,10.77
2022-08-19T02:32:56.886Z,10.35
2022-08-19T02:35:24.890Z,10.80
2022-08-19T02:38:12.890Z,10.77
2022-08-19T02:40:40.789Z,11.60
2022-08-19T02:43:11.071Z,10.95
2022-08-19T02:45:41.622Z,11.07
2022-08-19T02:48:14.889Z,10.02
2022-08-19T02:50:53.797Z,10.35
2022-08-19T02:53:23.038Z,10.15
2022-08-19T02:55:51.794Z,9.75
2022-08-19T02:58:23.992Z,9.73
2022-08-19T03:00:55.027Z,10.45
2022-08-19T03:03:23.211Z,9.48
2022-08-19T03:05:56.524Z,9.88
2022-08-19T03:08:26.812Z,9.25
2022-08-19T03:10:55.071Z,9.90
2022-08-19T03:13:25.281Z,9.75
2022-08-19T03:15:53.294Z,10.63
2022-08-19T03:18:23.334Z,14.30
2022-08-19T03:20:55.455Z,15.00
2022-08-19T03:23:23.762Z,14.57
2022-08-19T03:26:03.934Z,14.25
2022-08-19T03:28:47.714Z,14.02
2022-08-19T03:31:43.455Z,12.98
2022-08-19T03:34:13.177Z,12.65
2022-08-19T03:36:41.781Z,15.10
2022-08-19T03:39:10.419Z,15.45
2022-08-19T03:41:44.578Z,20.58
2022-08-19T03:44:17.860Z,19.60
2022-08-19T03:46:47.952Z,18.85
2022-08-19T03:49:18.349Z,16.40
2022-08-19T03:51:48.667Z,14.35
2022-08-19T03:54:18.236Z,12.90
2022-08-19T03:56:47.946Z,12.13
2022-08-19T03:59:19.791Z,10.70
2022-08-19T04:01:48.044Z,11.32
2022-08-19T04:04:15.958Z,10.10
2022-08-19T04:06:48.178Z,10.95
2022-08-19T04:09:16.513Z,10.70
2022-08-19T04:11:47.583Z,11.73
2022-08-19T04:14:20.002Z,10.98
2022-08-19T04:16:49.047Z,10.87
2022-08-19T04:19:18.760Z,10.07
2022-08-19T04:21:48.797Z,11.35
2022-08-19T04:24:17.220Z,11.02
2022-08-19T04:26:45.544Z,11.18
2022-08-19T04:29:15.829Z,11.05
2022-08-19T04:31:46.530Z,10.32
2022-08-19T04:34:17.128Z,10.35
2022-08-19T04:36:46.597Z,10.48
2022-08-19T04:39:17.367Z,10.50
2022-08-19T04:42:02.952Z,10.43
2022-08-19T04:44:33.325Z,10.98
2022-08-19T04:47:11.024Z,10.20
2022-08-19T04:49:40.093Z,11.40
2022-08-19T04:52:09.404Z,12.13
2022-08-19T04:54:39.353Z,10.43
2022-08-19T04:57:10.607Z,10.75
2022-08-19T04:59:39.555Z,11.18
2022-08-19T05:02:09.809Z,10.77
2022-08-19T05:04:40.168Z,11.98
2022-08-19T05:07:08.957Z,10.60
2022-08-19T05:09:56.625Z,11.18
2022-08-19T05:12:29.383Z,10.57
2022-08-19T05:14:58.754Z,10.93
2022-08-19T05:17:32.415Z,11.82
2022-08-19T05:20:22.824Z,9.98
2022-08-19T05:22:50.911Z,9.27
2022-08-19T05:25:21.452Z,10.63
2022-08-19T05:27:49.844Z,9.95
2022-08-19T05:30:18.906Z,9.95
2022-08-19T05:33:03.549Z,9.88
2022-08-19T05:35:34.578Z,10.30
2022-08-19T05:38:02.810Z,10.10
2022-08-19T05:40:30.798Z,10.27
2022-08-19T05:42:58.746Z,11.38
2022-08-19T05:45:26.665Z,10.57
2022-08-19T05:47:55.184Z,9.93
2022-08-19T05:50:24.527Z,10.07
2022-08-19T05:52:52.542Z,10.48
2022-08-19T05:55:21.149Z,10.88
2022-08-19T05:57:49.129Z,9.88
2022-08-19T06:00:21.412Z,8.68
2022-08-19T06:02:52.892Z,10.10
2022-08-19T06:05:21.222Z,9.60
2022-08-19T06:07:50.585Z,9.65
2022-08-19T06:10:18.552Z,9.98
2022-08-19T06:12:46.502Z,9.55
2022-08-19T06:15:15.641Z,10.05
2022-08-19T06:17:45.205Z,10.38
2022-08-19T06:20:16.233Z,9.93
2022-08-19T06:22:46.431Z,9.82
2022-08-19T06:25:18.015Z,9.88
2022-08-19T06:28:13.419Z,9.60
2022-08-19T06:30:34.324Z,10.57
2022-08-19T06:33:02.248Z,10.05
2022-08-19T06:35:30.364Z,9.90
2022-08-19T06:37:58.496Z,10.05
2022-08-19T06:40:28.594Z,10.73
2022-08-19T06:42:57.255Z,10.40
2022-08-19T06:45:34.428Z,9.73
2022-08-19T06:48:04.057Z,10.18
2022-08-19T06:50:31.934Z,10.15
2022-08-19T06:52:59.836Z,10.13
2022-08-19T06:55:33.792Z,10.63
2022-08-19T06:58:04.642Z,11.45
2022-08-19T07:00:32.773Z,10.50
2022-08-19T07:03:06.132Z,11.40
2022-08-19T07:05:40.884Z,11.50
2022-08-19T07:08:14.230Z,11.85
2022-08-19T07:10:46.714Z,11.80
2022-08-19T07:13:14.930Z,12.63
2022-08-19T07:15:43.400Z,11.52
2022-08-19T07:18:11.682Z,11.88
2022-08-19T07:20:40.436Z,12.10
2022-08-19T07:23:15.879Z,12.00
2022-08-19T07:25:52.897Z,11.90
2022-08-19T07:28:24.437Z,11.38
2022-08-19T07:30:53.438Z,11.57
2022-08-19T07:33:21.672Z,11.73
2022-08-19T07:35:50.770Z,12.60
2022-08-19T07:38:19.118Z,11.93
2022-08-19T07:40:48.420Z,12.05
2022-08-19T07:43:17.925Z,11.05
2022-08-19T07:45:47.930Z,11.88
2022-08-19T07:48:16.447Z,12.23
2022-08-19T07:50:44.527Z,11.95
2022-08-19T07:53:12.884Z,11.65
2022-08-19T07:55:43.836Z,11.98
2022-08-19T07:58:15.646Z,12.27
2022-08-19T08:00:44.495Z,12.65
2022-08-19T08:03:12.778Z,12.00
2022-08-19T08:05:57.959Z,12.25
2022-08-19T08:08:44.189Z,13.35
2022-08-19T08:11:16.728Z,13.68
2022-08-19T08:13:46.923Z,14.95
2022-08-19T08:16:31.029Z,12.57
2022-08-19T08:18:59.187Z,13.07
2022-08-19T08:21:27.245Z,13.18
2022-08-19T08:23:56.686Z,13.57
2022-08-19T08:26:25.977Z,13.52
2022-08-19T08:28:55.672Z,15.60
2022-08-19T08:31:24.445Z,15.65
2022-08-19T08:33:52.331Z,15.25
2022-08-19T08:36:20.300Z,15.48
2022-08-19T08:38:49.098Z,13.45
2022-08-19T08:41:24.455Z,14.05
2022-08-19T08:43:55.155Z,14.65
2022-08-19T08:46:31.014Z,13.65
2022-08-19T08:49:04.622Z,14.75
2022-08-19T08:54:09.907Z,15.60
2022-08-19T08:56:40.250Z,14.65
2022-08-19T08:59:14.816Z,14.38
2022-08-19T09:01:42.873Z,14.45
2022-08-19T09:04:14.099Z,14.43
2022-08-19T09:06:52.745Z,15.40
2022-08-19T09:09:29.442Z,13.98
2022-08-19T09:12:07.756Z,12.95
2022-08-19T09:14:50.801Z,13.45
2022-08-19T09:17:21.960Z,13.65
2022-08-19T09:19:54.950Z,13.60
2022-08-19T09:22:25.704Z,13.15
2022-08-19T09:24:54.434Z,13.77
2022-08-19T09:27:42.069Z,13.13
2022-08-19T09:30:18.107Z,12.35
2022-08-19T09:32:46.525Z,13.82
2022-08-19T09:35:15.378Z,11.98
2022-08-19T09:37:44.361Z,13.40
2022-08-19T09:40:13.835Z,12.85
2022-08-19T09:42:49.935Z,12.52
2022-08-19T09:45:22.977Z,12.45
2022-08-19T09:47:54.145Z,12.88
2022-08-19T09:50:24.647Z,14.13
2022-08-19T09:52:57.047Z,11.82
2022-08-19T09:55:31.466Z,11.93
2022-08-19T09:58:02.012Z,11.73
2022-08-19T10:00:32.735Z,11.77
2022-08-19T10:03:01.159Z,12.02
2022-08-19T10:05:48.487Z,12.02
2022-08-19T10:08:17.660Z,12.27
2022-08-19T10:10:47.035Z,12.95
2022-08-19T10:13:16.861Z,12.73
2022-08-19T10:15:47.439Z,12.20
2022-08-19T10:18:18.715Z,10.95
2022-08-19T10:20:51.295Z,12.15
2022-08-19T10:23:20.704Z,11.27
2022-08-19T10:25:49.781Z,11.52
2022-08-19T10:28:19.138Z,11.57
2022-08-19T10:30:49.447Z,11.32
2022-08-19T10:33:38.175Z,11.35
2022-08-19T10:36:07.785Z,12.60
2022-08-19T10:38:35.948Z,11.63
2022-08-19T10:41:13.189Z,11.10
2022-08-19T10:43:41.710Z,12.32
2022-08-19T10:46:16.691Z,11.65
2022-08-19T10:48:46.380Z,11.63
2022-08-19T10:51:31.587Z,10.68
2022-08-19T10:54:00.116Z,11.00
2022-08-19T10:56:46.302Z,11.00
2022-08-19T10:59:15.045Z,12.75
2022-08-19T11:01:46.125Z,11.45
2022-08-19T11:04:18.314Z,11.55
2022-08-19T11:06:48.283Z,11.32
2022-08-19T11:09:17.607Z,11.23
2022-08-19T11:11:46.097Z,10.63
2022-08-19T11:14:16.807Z,11.35
2022-08-19T11:16:47.339Z,11.40
2022-08-19T11:19:18.006Z,10.48
2022-08-19T11:21:48.421Z,11.13
2022-08-19T11:24:21.182Z,10.35
2022-08-19T11:26:50.827Z,10.88
2022-08-19T11:29:20.781Z,9.10
2022-08-19T11:31:51.464Z,10.40
2022-08-19T11:34:22.212Z,10.40
2022-08-19T11:36:51.703Z,9.88
2022-08-19T11:39:23.461Z,10.07
2022-08-19T11:41:51.572Z,10.52
2022-08-19T11:44:19.652Z,9.70
2022-08-19T11:46:48.492Z,10.32
2022-08-19T11:49:20.721Z,10.23
2022-08-19T11:51:49.349Z,9.85
2022-08-19T11:54:18.119Z,9.63
2022-08-19T11:56:48.717Z,9.38
2022-08-19T11:59:16.937Z,9.50
2022-08-19T12:01:44.937Z,9.50
2022-08-19T12:04:13.411Z,9.35
2022-08-19T12:06:43.290Z,9.73
2022-08-19T12:09:12.699Z,8.27
2022-08-19T12:11:41.493Z,8.65
2022-08-19T12:14:14.600Z,7.95
2022-08-19T12:16:49.101Z,8.02
2022-08-19T12:19:22.402Z,7.63
2022-08-19T12:21:53.968Z,7.55
2022-08-19T12:24:24.312Z,8.18
2022-08-19T12:26:53.978Z,7.53
2022-08-19T12:29:23.907Z,6.95
2022-08-19T12:31:52.173Z,7.03
2022-08-19T12:34:21.029Z,6.60
2022-08-19T12:36:50.326Z,7.47
2022-08-19T12:39:19.808Z,7.97
2022-08-19T12:41:54.795Z,6.65
2022-08-19T12:44:28.827Z,7.20
2022-08-19T12:47:00.229Z,6.68
2022-08-19T12:49:52.112Z,6.25
2022-08-19T12:52:22.996Z,6.57
2022-08-19T12:54:53.807Z,6.50
2022-08-19T12:57:23.734Z,6.95
2022-08-19T13:00:01.115Z,7.22
2022-08-19T13:02:29.273Z,6.93
2022-08-19T13:04:57.790Z,6.65
2022-08-19T13:07:25.689Z,7.68
2022-08-19T13:09:54.987Z,7.15
2022-08-19T13:12:25.270Z,7.03
2022-08-19T13:14:53.360Z,7.35
2022-08-19T13:17:21.816Z,7.90
2022-08-19T13:19:49.899Z,6.72
2022-08-19T13:22:17.908Z,6.97
2022-08-19T13:24:47.398Z,7.43
2022-08-19T13:27:17.347Z,8.10
2022-08-19T13:30:02.878Z,8.18
2022-08-19T13:32:49.078Z,7.15
2022-08-19T13:35:17.599Z,7.47
2022-08-19T13:37:46.478Z,7.28
2022-08-19T13:40:19.381Z,8.32
2022-08-19T13:42:51.869Z,7.75
2022-08-19T13:45:23.356Z,7.87
2022-08-19T13:47:58.438Z,8.10
2022-08-19T13:50:29.685Z,7.78
2022-08-19T13:52:58.343Z,8.07
2022-08-19T13:55:27.706Z,7.45
2022-08-19T13:57:58.908Z,8.50
2022-08-19T14:00:29.326Z,8.07
2022-08-19T14:02:59.051Z,7.60
2022-08-19T14:05:29.641Z,8.63
2022-08-19T14:07:58.481Z,8.15
2022-08-19T14:10:27.098Z,8.48
2022-08-19T14:12:59.155Z,8.07
2022-08-19T14:15:28.230Z,9.00
2022-08-19T14:17:56.905Z,7.70
2022-08-19T14:20:26.020Z,8.15
2022-08-19T14:22:54.796Z,7.82
2022-08-19T14:25:24.935Z,7.38
2022-08-19T14:27:53.511Z,7.50
2022-08-19T14:30:26.441Z,8.05
2022-08-19T14:32:55.056Z,7.72
2022-08-19T14:35:23.896Z,7.45
2022-08-19T14:37:54.838Z,8.43
2022-08-19T14:40:26.769Z,7.90
2022-08-19T14:42:56.702Z,8.20
2022-08-19T14:45:26.095Z,7.38
2022-08-19T14:47:54.365Z,7.68
2022-08-19T14:50:24.715Z,7.15
2022-08-19T14:53:00.467Z,7.28
2022-08-19T14:55:28.440Z,7.85
2022-08-19T14:57:56.402Z,8.80
2022-08-19T15:00:27.934Z,7.57
2022-08-19T15:02:56.247Z,7.07
2022-08-19T15:05:24.444Z,6.50
2022-08-19T15:07:52.427Z,6.30
2022-08-19T15:10:20.312Z,6.63
2022-08-19T15:12:51.755Z,6.32
2022-08-19T15:15:20.755Z,6.70
2022-08-19T15:17:50.453Z,6.20
2022-08-19T15:20:22.071Z,6.38
2022-08-19T15:22:50.081Z,6.30
2022-08-19T15:25:21.235Z,6.10
2022-08-19T15:27:51.101Z,6.22
2022-08-19T15:30:23.062Z,6.90
2022-08-19T15:32:55.621Z,6.97
2022-08-19T15:35:24.641Z,6.53
2022-08-19T15:37:53.514Z,7.03
2022-08-19T15:40:22.873Z,6.15
2022-08-19T15:42:51.598Z,5.82
2022-08-19T15:45:20.829Z,5.82
2022-08-19T15:47:49.289Z,6.28
2022-08-19T15:50:22.197Z,6.55
2022-08-19T15:52:52.183Z,7.05
2022-08-19T15:55:34.084Z,7.60
2022-08-19T15:58:28.425Z,7.75
2022-08-19T16:01:15.560Z,8.05
2022-08-19T16:04:01.383Z,8.15
2022-08-19T16:06:31.490Z,8.85
2022-08-19T16:09:01.871Z,9.23
2022-08-19T16:11:32.432Z,8.68
2022-08-19T16:14:01.538Z,8.43
2022-08-19T16:16:33.739Z,9.20
2022-08-19T16:19:04.075Z,8.30
2022-08-19T16:21:34.351Z,8.55
2022-08-19T16:24:06.581Z,8.52
2022-08-19T16:26:35.199Z,9.82
2022-08-19T16:29:09.096Z,8.10
2022-08-19T16:31:41.433Z,8.48
2022-08-19T16:34:09.482Z,7.63
2022-08-19T16:36:42.033Z,8.18
2022-08-19T16:39:11.722Z,7.50
2022-08-19T16:41:40.437Z,7.78
2022-08-19T16:44:10.284Z,7.97
2022-08-19T16:46:41.558Z,7.72
2022-08-19T16:49:12.009Z,7.50
2022-08-19T16:51:42.472Z,7.55
2022-08-19T16:54:10.467Z,7.38
2022-08-19T16:56:38.433Z,6.82
2022-08-19T16:59:06.612Z,7.20
2022-08-19T17:01:34.536Z,7.13
2022-08-19T17:04:02.495Z,7.05
2022-08-19T17:06:32.052Z,6.30
2022-08-19T17:09:02.996Z,6.30
2022-08-19T17:11:32.841Z,6.45
2022-08-19T17:14:01.854Z,6.38
2022-08-19T17:16:32.675Z,6.18
2022-08-19T17:19:03.375Z,6.32
2022-08-19T17:21:33.315Z,6.65
2022-08-19T17:24:04.597Z,5.75
2022-08-19T17:26:33.127Z,5.70
2022-08-19T17:29:01.439Z,5.95
2022-08-19T17:31:31.324Z,5.25
2022-08-19T17:33:59.939Z,5.72
2022-08-19T17:36:29.621Z,5.38
2022-08-19T17:38:59.493Z,5.25
2022-08-19T17:41:33.722Z,5.45
2022-08-19T17:44:02.273Z,5.00
2022-08-19T17:46:30.449Z,4.97
2022-08-19T17:48:59.037Z,4.88
2022-08-19T17:51:42.119Z,5.45
2022-08-19T17:54:12.851Z,4.55
2022-08-19T17:56:42.833Z,4.82
2022-08-19T17:59:13.725Z,5.03
2022-08-19T18:01:51.882Z,5.05
2022-08-19T18:04:22.941Z,4.68
2022-08-19T18:06:53.077Z,5.30
2022-08-19T18:09:23.812Z,5.53
2022-08-19T18:11:55.458Z,5.50
2022-08-19T18:14:32.936Z,5.38
2022-08-19T18:17:01.665Z,5.70
2022-08-19T18:19:41.626Z,6.20
2022-08-19T18:22:11.799Z,5.45
2022-08-19T18:24:40.587Z,5.47
2022-08-19T18:27:10.118Z,5.63
2022-08-19T18:29:40.104Z,5.88
2022-08-19T18:32:12.603Z,6.10
2022-08-19T18:34:41.551Z,6.63
2022-08-19T18:37:10.543Z,7.15
2022-08-19T18:39:56.345Z,7.22
2022-08-19T18:42:43.354Z,7.88
2022-08-19T18:45:29.079Z,8.18
2022-08-19T18:48:26.346Z,7.82
2022-08-19T18:50:57.638Z,8.05
2022-08-19T18:53:26.283Z,7.95
2022-08-19T18:55:55.114Z,9.18
2022-08-19T18:58:26.548Z,8.93
2022-08-19T19:00:57.320Z,10.55
2022-08-19T19:03:26.232Z,9.88
2022-08-19T19:05:54.545Z,10.18
2022-08-19T19:08:26.696Z,10.82
2022-08-19T19:10:56.005Z,11.40
2022-08-19T19:13:26.760Z,11.23
2022-08-19T19:15:55.484Z,10.05
2022-08-19T19:18:23.465Z,12.38
2022-08-19T19:20:51.319Z,11.48
2022-08-19T19:23:20.570Z,12.02
2022-08-19T19:25:50.256Z,12.27
2022-08-19T19:28:25.428Z,11.38
2022-08-19T19:30:58.435Z,11.85
2022-08-19T19:33:26.778Z,11.93
2022-08-19T19:35:54.823Z,13.63
2022-08-19T19:38:22.777Z,12.27
2022-08-19T19:40:50.711Z,13.27
2022-08-19T19:43:19.199Z,12.82
2022-08-19T19:45:48.979Z,12.73
2022-08-19T19:48:18.524Z,11.52
2022-08-19T19:50:53.983Z,12.82
2022-08-19T19:53:24.198Z,11.65
2022-08-19T19:55:57.584Z,12.00
2022-08-19T19:58:28.490Z,11.82
2022-08-19T20:00:57.273Z,12.88
2022-08-19T20:03:26.813Z,12.77
2022-08-19T20:05:54.910Z,13.07
2022-08-19T20:08:40.293Z,13.05
2022-08-19T20:11:08.586Z,14.25
2022-08-19T20:13:39.572Z,13.43
2022-08-19T20:16:08.050Z,13.40
2022-08-19T20:18:40.163Z,13.43
2022-08-19T20:21:08.161Z,12.88
2022-08-19T20:23:36.297Z,13.05
2022-08-19T20:26:06.793Z,14.45
2022-08-19T20:28:40.232Z,13.18
2022-08-19T20:31:15.029Z,13.75
2022-08-19T20:33:44.521Z,13.50
2022-08-19T20:36:12.477Z,14.60
2022-08-19T20:38:40.411Z,14.10
2022-08-19T20:41:09.533Z,14.23
2022-08-19T20:43:37.804Z,13.68
2022-08-19T20:46:06.035Z,14.73
2022-08-19T20:48:36.182Z,13.65
2022-08-19T20:51:05.888Z,14.18
2022-08-19T20:53:35.044Z,14.38
2022-08-19T20:56:03.096Z,13.95
2022-08-19T20:58:31.829Z,14.75
2022-08-19T21:01:01.343Z,14.93
2022-08-19T21:03:32.312Z,14.60
2022-08-19T21:06:00.662Z,13.65
2022-08-19T21:08:30.050Z,13.55
2022-08-19T21:10:58.459Z,14.23
2022-08-19T21:13:26.893Z,14.23
2022-08-19T21:15:55.129Z,14.00
2022-08-19T21:18:25.551Z,14.05
2022-08-19T21:20:54.567Z,13.95
2022-08-19T21:23:24.726Z,14.35
2022-08-19T21:25:55.938Z,13.55
2022-08-19T21:28:34.513Z,13.32
2022-08-19T21:31:06.254Z,13.23
2022-08-19T21:33:34.260Z,12.90
2022-08-19T21:36:03.019Z,13.30
2022-08-19T21:38:31.239Z,14.27
2022-08-19T21:41:05.847Z,14.00
2022-08-19T21:43:34.823Z,13.35
2022-08-19T21:46:02.913Z,13.55
2022-08-19T21:48:30.907Z,13.48
2022-08-19T21:50:58.828Z,12.38
2022-08-19T21:53:34.083Z,13.32
2022-08-19T21:56:04.404Z,12.68
2022-08-19T21:58:33.528Z,12.80
2022-08-19T22:01:06.057Z,14.15
2022-08-19T22:03:34.636Z,13.63
2022-08-19T22:06:02.815Z,13.02
2022-08-19T22:08:31.626Z,13.77
2022-08-19T22:11:00.221Z,14.10
2022-08-19T22:13:33.735Z,12.07
2022-08-19T22:16:03.925Z,12.32
2022-08-19T22:18:31.932Z,13.10
2022-08-19T22:21:00.231Z,11.57
2022-08-19T22:23:28.176Z,12.75
2022-08-19T22:25:56.080Z,12.95
2022-08-19T22:28:27.936Z,12.98
2022-08-19T22:30:57.507Z,13.00
2022-08-19T22:33:27.603Z,12.32
2022-08-19T22:35:55.777Z,12.07
2022-08-19T22:38:25.254Z,12.45
2022-08-19T22:40:54.252Z,11.98
2022-08-19T22:43:26.131Z,12.57
2022-08-19T22:45:58.057Z,12.50
2022-08-19T22:48:28.938Z,12.15
2022-08-19T22:51:15.798Z,12.00
2022-08-19T22:53:46.535Z,12.07
2022-08-19T22:56:18.005Z,12.00
2022-08-19T22:58:49.990Z,12.10
2022-08-19T23:01:30.107Z,12.27
2022-08-19T23:03:58.953Z,12.32
2022-08-19T23:06:33.187Z,11.98
2022-08-19T23:09:04.819Z,11.57
2022-08-19T23:11:35.706Z,12.27
2022-08-19T23:14:09.548Z,11.50
2022-08-19T23:16:39.391Z,11.65
2022-08-19T23:19:09.859Z,11.35
2022-08-19T23:21:38.793Z,11.77
2022-08-19T23:24:07.382Z,10.57
2022-08-19T23:26:36.203Z,11.50
2022-08-19T23:29:22.803Z,10.90
2022-08-19T23:31:52.350Z,11.27
2022-08-19T23:34:20.262Z,10.73
2022-08-19T23:36:48.418Z,10.73
2022-08-19T23:39:16.417Z,11.38
2022-08-19T23:41:44.640Z,10.40
2022-08-19T23:44:14.726Z,11.38
2022-08-19T23:46:54.561Z,11.18
2022-08-19T23:49:25.812Z,10.82
2022-08-19T23:51:55.608Z,9.98
2022-08-19T23:54:32.042Z,11.27
2022-08-19T23:57:13.956Z,10.57
2022-08-19T23:59:42.540Z,11.23
